Terminal Aerodrome Forecast
Issued by NWS

Home | Current Version | Previous Version | Text Only | Print | Product List | Glossary Off
Versions: 1 2 3 4 5 6 7 8 9 10 11 12 13 14 15 16 17

000
FTUS43 KOAX 282335
TAFCDR
TAF
KCDR 282335Z 2900/2924 04011KT P6SM SCT012 BKN020
     FM290300 04008KT P6SM OVC010
     FM290500 07007KT P6SM OVC008
     FM290900 04006KT P6SM OVC003
     FM291600 07010KT 2SM -SN BR OVC003
     FM292000 06011KT 3SM -RA OVC008=

USA.gov is the U.S. government's official web portal to all federal, state and local government web resources and services.